Nephi, UT

2:27 AM MST on March 01, 2015 (GMT -0700)
MesoWest Nephi UT US UCC-AGNET | Change Station
CLOSE
Current Station
Personal Weather Station
Location: Nephi, UT
Elevation: 5001 ft
Nearby Weather Stations

Elev 5001 ft 39.69 °N, 111.88 °W | Updated 27 minutes ago

Overcast
Overcast
32 °F
Feels Like 32 °F
N
1
Wind Variable Wind from NW
Gusts 3.0 mph

Today
High -- | Low -- °F
--% Chance of Precip.
Yesterday
High -- | Low -- °F
Precip. -- in
7:00 AM 6:19 PM
Waxing Gibbous, 84% visible
Pressure 29.98 in
Visibility 3.0 miles
Clouds Mostly Cloudy 1100 ft
Windchill 32 °F
Dew Point 32 °F
Humidity 100%
Rainfall -999.00 in
Snow Depth Not available.
UV 0 out of 12
Pollen 2.90 out of 12
Air Quality Not available.
Flu Activity Not available.
METAR KPVU 010915Z AUTO 10003KT 3SM BKN011 01/M01 A2998 RMK AO1

More Conditions Fewer Conditions

Pressure 29.98 in
Visibility 3.0 miles
Clouds Mostly Cloudy 1100 ft
Windchill 32 °F
Dew Point 32 °F
Humidity 100%
Rainfall -999.00 in
Snow Depth Not available.
UV 0 out of 12
Pollen 2.90 out of 12
Air Quality Not available.
Flu Activity Not available.
METAR KPVU 010915Z AUTO 10003KT 3SM BKN011 01/M01 A2998 RMK AO1

More Conditions Fewer Conditions

10-Day Weather Forecast

Almanac

Astronomy

Mar. 01, 2015 Rise Set
Actual Time
Civil Twilight
Nautical Twilight
Astronomical Twilight
Moon
Length of Visible Light
Length of Day
Tomorrow will be .
, % of the Moon is Illuminated

Today's Extremes

State Highs State Lows

Community

WunderPhotos

Upload Photos

1,801,350 photos uploaded!

WunderBlogs® & News

Nearby

Air Quality

  Air Quality AQ Index Pollutant
Not available.

Snow Depth

Station Depth Elevation

Earthquake Activity

City Distance Mag. Time & Date
Minimum magnitude displayed is 2.5.

Coastal Water Temperatures

Place Temperature

Nearby Weather Stations